createdAt,value
2018-02-08T00:00:44.697Z,0
2018-02-08T00:01:44.423Z,0
2018-02-08T00:02:43.924Z,0
2018-02-08T00:03:44.670Z,0
2018-02-08T00:04:44.412Z,0
2018-02-08T00:05:46.430Z,0
2018-02-08T00:06:44.374Z,0
2018-02-08T00:07:44.112Z,0
2018-02-08T00:08:44.354Z,0
2018-02-08T00:09:43.841Z,0
2018-02-08T00:10:44.583Z,0
2018-02-08T00:11:44.073Z,0
2018-02-08T00:12:44.561Z,0
2018-02-08T00:13:44.298Z,0
2018-02-08T00:14:44.540Z,0
2018-02-08T00:15:43.783Z,0
2018-02-08T00:16:44.272Z,0
2018-02-08T00:17:44.252Z,0
2018-02-08T00:18:44.250Z,0
2018-02-08T00:19:44.486Z,0
2018-02-08T00:20:44.249Z,0
2018-02-08T00:21:44.214Z,0
2018-02-08T00:22:44.455Z,0
2018-02-08T00:23:43.941Z,0
2018-02-08T00:24:44.198Z,0
2018-02-08T00:25:44.181Z,0
2018-02-08T00:26:44.177Z,0
2018-02-08T00:27:44.151Z,0
2018-02-08T00:28:44.395Z,0
2018-02-08T00:29:44.385Z,0
2018-02-08T00:30:44.384Z,0
2018-02-08T00:31:44.369Z,0
2018-02-08T00:32:44.359Z,0
2018-02-08T00:33:44.091Z,0
2018-02-08T00:34:44.085Z,0
2018-02-08T00:35:44.940Z,0
2018-02-08T00:36:44.320Z,0
2018-02-08T00:37:44.311Z,0
2018-02-08T00:38:44.290Z,0
2018-02-08T00:39:43.774Z,0
2018-02-08T00:40:44.020Z,0
2018-02-08T00:41:44.270Z,0
2018-02-08T00:42:44.002Z,0
2018-02-08T00:43:43.998Z,0
2018-02-08T00:44:43.985Z,0
2018-02-08T00:45:44.220Z,0
2018-02-08T00:46:43.712Z,0
2018-02-08T00:47:43.695Z,0
2018-02-08T00:48:43.430Z,0
2018-02-08T00:49:43.928Z,0
2018-02-08T00:50:43.914Z,0
2018-02-08T00:51:43.656Z,0
2018-02-08T00:52:43.896Z,0
2018-02-08T00:53:43.893Z,0
2018-02-08T00:54:43.871Z,0
2018-02-08T00:55:43.869Z,0
2018-02-08T00:56:44.101Z,0
2018-02-08T00:57:43.591Z,0
2018-02-08T00:58:43.834Z,0
2018-02-08T00:59:44.070Z,0
2018-02-08T01:00:43.813Z,0
2018-02-08T01:01:43.808Z,0
2018-02-08T01:02:43.806Z,0
2018-02-08T01:03:43.523Z,0
2018-02-08T01:04:43.768Z,0
2018-02-08T01:05:44.961Z,0
2018-02-08T01:06:43.797Z,0
2018-02-08T01:07:43.988Z,0
2018-02-08T01:08:43.474Z,0
2018-02-08T01:09:43.717Z,0
2018-02-08T01:10:43.709Z,0
2018-02-08T01:11:43.711Z,0
2018-02-08T01:12:43.717Z,0
2018-02-08T01:13:43.939Z,0
2018-02-08T01:14:43.666Z,0
2018-02-08T01:15:43.904Z,0
2018-02-08T01:16:43.390Z,0
2018-02-08T01:17:43.886Z,0
2018-02-08T01:18:43.870Z,0
2018-02-08T01:19:43.107Z,0
2018-02-08T01:20:43.598Z,0
2018-02-08T01:21:43.593Z,0
2018-02-08T01:22:43.573Z,0
2018-02-08T01:23:43.827Z,0
2018-02-08T01:24:43.555Z,0
2018-02-08T01:25:43.806Z,0
2018-02-08T01:26:43.288Z,0
2018-02-08T01:27:43.784Z,0
2018-02-08T01:28:43.764Z,0
2018-02-08T01:29:43.768Z,0
2018-02-08T01:30:43.239Z,0
2018-02-08T01:31:43.233Z,0
2018-02-08T01:32:43.476Z,0
2018-02-08T01:33:43.213Z,0
2018-02-08T01:34:43.694Z,0
2018-02-08T01:35:43.447Z,0
2018-02-08T01:36:44.542Z,0
2018-02-08T01:37:43.164Z,0
2018-02-08T01:38:42.907Z,0
2018-02-08T01:39:43.147Z,0
2018-02-08T01:40:43.641Z,0
2018-02-08T01:41:43.630Z,0
2018-02-08T01:42:43.619Z,0
2018-02-08T01:43:43.108Z,0
2018-02-08T01:44:43.361Z,0
2018-02-08T01:45:43.085Z,0
2018-02-08T01:46:43.072Z,0
2018-02-08T01:47:43.308Z,0
2018-02-08T01:48:43.293Z,0
2018-02-08T01:49:43.301Z,0
2018-02-08T01:50:43.535Z,0
2018-02-08T01:51:43.276Z,0
2018-02-08T01:52:43.257Z,0
2018-02-08T01:53:42.993Z,0
2018-02-08T01:54:42.989Z,0
2018-02-08T01:55:43.239Z,0
2018-02-08T01:56:43.460Z,0
2018-02-08T01:57:42.949Z,0
2018-02-08T01:58:43.195Z,0
2018-02-08T01:59:43.203Z,0
2018-02-08T02:00:42.918Z,0
2018-02-08T02:01:42.910Z,0
2018-02-08T02:02:42.899Z,0
2018-02-08T02:03:42.884Z,0
2018-02-08T02:04:43.135Z,0
2018-02-08T02:05:43.118Z,0
2018-02-08T02:06:43.904Z,0
2018-02-08T02:07:43.344Z,0
2018-02-08T02:08:43.338Z,0
2018-02-08T02:09:42.826Z,0
2018-02-08T02:10:42.819Z,0
2018-02-08T02:11:43.048Z,0
2018-02-08T02:12:43.302Z,0
2018-02-08T02:13:43.027Z,0
2018-02-08T02:14:43.016Z,0
2018-02-08T02:15:42.767Z,0
2018-02-08T02:16:42.510Z,0
2018-02-08T02:17:42.991Z,0
2018-02-08T02:18:42.725Z,0
2018-02-08T02:19:42.713Z,0
2018-02-08T02:20:42.952Z,0
2018-02-08T02:21:43.210Z,0
2018-02-08T02:22:42.937Z,0
2018-02-08T02:23:42.918Z,0
2018-02-08T02:24:42.906Z,0
2018-02-08T02:25:42.903Z,0
2018-02-08T02:26:42.899Z,0
2018-02-08T02:27:43.136Z,0
2018-02-08T02:28:42.865Z,0
2018-02-08T02:29:43.110Z,0
2018-02-08T02:30:42.616Z,0
2018-02-08T02:31:43.087Z,0
2018-02-08T02:32:42.831Z,0
2018-02-08T02:33:42.819Z,0
2018-02-08T02:34:42.806Z,0
2018-02-08T02:35:42.804Z,0
2018-02-08T02:36:42.551Z,0
2018-02-08T02:37:47.629Z,0
2018-02-08T02:38:43.026Z,0
2018-02-08T02:39:42.749Z,0
2018-02-08T02:40:43.023Z,0
2018-02-08T02:41:43.012Z,0
2018-02-08T02:42:42.720Z,0
2018-02-08T02:43:42.957Z,0
2018-02-08T02:44:42.710Z,0
2018-02-08T02:45:42.687Z,0
2018-02-08T02:46:42.420Z,0
2018-02-08T02:47:42.914Z,0
2018-02-08T02:48:42.907Z,0
2018-02-08T02:49:42.643Z,0
2018-02-08T02:50:42.640Z,0
2018-02-08T02:51:42.628Z,0
2018-02-08T02:52:42.360Z,0
2018-02-08T02:53:42.597Z,0
2018-02-08T02:54:42.837Z,0
2018-02-08T02:55:42.616Z,0
2018-02-08T02:56:42.324Z,0
2018-02-08T02:57:42.304Z,0
2018-02-08T02:58:42.038Z,0
2018-02-08T02:59:42.294Z,0
2018-02-08T03:00:42.523Z,0
2018-02-08T03:01:42.260Z,0
2018-02-08T03:02:42.254Z,0
2018-02-08T03:03:42.493Z,0
2018-02-08T03:04:42.492Z,0
2018-02-08T03:05:42.726Z,0
2018-02-08T03:06:42.211Z,0
2018-02-08T03:07:42.467Z,0
2018-02-08T03:08:43.256Z,0
2018-02-08T03:09:42.425Z,0
2018-02-08T03:10:42.415Z,0
2018-02-08T03:11:42.656Z,0
2018-02-08T03:12:42.394Z,0
2018-02-08T03:13:41.880Z,0
2018-02-08T03:14:42.119Z,0
2018-02-08T03:15:42.383Z,0
2018-02-08T03:16:41.910Z,0
2018-02-08T03:17:42.352Z,0
2018-02-08T03:18:42.330Z,0
2018-02-08T03:19:42.318Z,0
2018-02-08T03:20:42.558Z,0
2018-02-08T03:21:42.299Z,0
2018-02-08T03:22:42.296Z,0
2018-02-08T03:23:42.031Z,0
2018-02-08T03:24:42.266Z,0
2018-02-08T03:25:42.516Z,0
2018-02-08T03:26:41.990Z,0
2018-02-08T03:27:42.231Z,0
2018-02-08T03:28:41.966Z,0
2018-02-08T03:29:42.215Z,0
2018-02-08T03:30:41.959Z,0
2018-02-08T03:31:42.198Z,0
2018-02-08T03:32:42.178Z,0
2018-02-08T03:33:41.922Z,0
2018-02-08T03:34:41.658Z,0
2018-02-08T03:35:42.155Z,0
2018-02-08T03:36:42.415Z,0
2018-02-08T03:37:41.878Z,0
2018-02-08T03:38:46.425Z,0
2018-02-08T03:39:41.850Z,0
2018-02-08T03:40:42.097Z,0
2018-02-08T03:41:42.084Z,0
2018-02-08T03:42:41.825Z,0
2018-02-08T03:43:41.820Z,0
2018-02-08T03:44:42.301Z,0
2018-02-08T03:45:42.040Z,0
2018-02-08T03:46:41.782Z,0
2018-02-08T03:47:42.286Z,0
2018-02-08T03:48:42.277Z,0
2018-02-08T03:49:42.262Z,0
2018-02-08T03:50:41.993Z,0
2018-02-08T03:51:42.053Z,0
2018-02-08T03:52:41.463Z,0
2018-02-08T03:53:41.977Z,0
2018-02-08T03:54:41.694Z,0
2018-02-08T03:55:41.685Z,0
2018-02-08T03:56:41.926Z,0
2018-02-08T03:57:41.924Z,0
2018-02-08T03:58:41.913Z,0
2018-02-08T03:59:41.644Z,0
2018-02-08T04:00:41.724Z,0
2018-02-08T04:01:41.633Z,0
2018-02-08T04:02:41.867Z,0
2018-02-08T04:03:41.858Z,0
2018-02-08T04:04:41.594Z,0
2018-02-08T04:05:41.656Z,0
2018-02-08T04:06:41.336Z,0
2018-02-08T04:07:41.810Z,0
2018-02-08T04:08:41.546Z,0
2018-02-08T04:09:41.792Z,0
2018-02-08T04:10:41.773Z,0
2018-02-08T04:11:41.763Z,0
2018-02-08T04:12:41.767Z,0
2018-02-08T04:13:41.748Z,0
2018-02-08T04:14:41.751Z,0
2018-02-08T04:15:41.991Z,0
2018-02-08T04:16:41.469Z,0
2018-02-08T04:17:41.960Z,0
2018-02-08T04:18:41.947Z,0
2018-02-08T04:19:41.942Z,0
2018-02-08T04:20:41.416Z,0
2018-02-08T04:21:41.919Z,0
2018-02-08T04:22:41.894Z,0
2018-02-08T04:23:41.639Z,0
2018-02-08T04:24:41.384Z,0
2018-02-08T04:25:41.865Z,0
2018-02-08T04:26:41.363Z,0
2018-02-08T04:27:41.841Z,0
2018-02-08T04:28:41.581Z,0
2018-02-08T04:29:41.575Z,0
2018-02-08T04:30:41.311Z,0
2018-02-08T04:31:41.548Z,0
2018-02-08T04:32:41.536Z,0
2018-02-08T04:33:41.783Z,0
2018-02-08T04:34:41.525Z,0
2018-02-08T04:35:41.763Z,0
2018-02-08T04:36:41.242Z,0
2018-02-08T04:37:41.482Z,0
2018-02-08T04:38:41.218Z,0
2018-02-08T04:39:42.267Z,0
2018-02-08T04:40:41.709Z,0
2018-02-08T04:41:41.691Z,0
2018-02-08T04:42:41.179Z,0
2018-02-08T04:43:41.159Z,0
2018-02-08T04:44:41.415Z,0
2018-02-08T04:45:41.416Z,0
2018-02-08T04:46:41.127Z,0
2018-02-08T04:47:41.127Z,0
2018-02-08T04:48:41.613Z,0
2018-02-08T04:49:41.095Z,0
2018-02-08T04:50:41.346Z,0
2018-02-08T04:51:41.094Z,0
2018-02-08T04:52:40.820Z,0
2018-02-08T04:53:41.060Z,0
2018-02-08T04:54:44.208Z,0
2018-02-08T04:55:41.289Z,0
2018-02-08T04:56:41.282Z,0
2018-02-08T04:57:41.271Z,0
2018-02-08T04:58:41.001Z,0
2018-02-08T04:59:41.243Z,0
2018-02-08T05:00:40.981Z,0
2018-02-08T05:01:40.973Z,0
2018-02-08T05:02:41.211Z,0
2018-02-08T05:03:41.198Z,0
2018-02-08T05:04:41.183Z,0
2018-02-08T05:05:41.179Z,0
2018-02-08T05:06:40.660Z,0
2018-02-08T05:07:40.651Z,0
2018-02-08T05:08:41.140Z,0
2018-02-08T05:09:40.894Z,0
2018-02-08T05:10:42.426Z,0
2018-02-08T05:11:41.105Z,0
2018-02-08T05:12:41.350Z,0
2018-02-08T05:13:41.086Z,0
2018-02-08T05:14:41.076Z,0
2018-02-08T05:15:40.816Z,0
2018-02-08T05:16:41.064Z,0
2018-02-08T05:17:40.788Z,0
2018-02-08T05:18:40.530Z,0
2018-02-08T05:19:41.017Z,0
2018-02-08T05:20:41.004Z,0
2018-02-08T05:21:41.263Z,0
2018-02-08T05:22:40.731Z,0
2018-02-08T05:23:40.726Z,0
2018-02-08T05:24:40.711Z,0
2018-02-08T05:25:43.076Z,0
2018-02-08T05:26:40.688Z,0
2018-02-08T05:27:40.935Z,0
2018-02-08T05:28:40.662Z,0
2018-02-08T05:29:40.918Z,0
2018-02-08T05:30:41.190Z,0
2018-02-08T05:31:40.880Z,0
2018-02-08T05:32:40.873Z,0
2018-02-08T05:33:40.858Z,0
2018-02-08T05:34:40.851Z,0
2018-02-08T05:35:40.847Z,0
2018-02-08T05:36:41.080Z,0
2018-02-08T05:37:40.828Z,0
2018-02-08T05:38:40.555Z,0
2018-02-08T05:39:40.827Z,0
2018-02-08T05:40:40.782Z,0
2018-02-08T05:41:40.520Z,0
2018-02-08T05:42:40.767Z,0
2018-02-08T05:43:40.252Z,0
2018-02-08T05:44:40.492Z,0
2018-02-08T05:45:40.979Z,0
2018-02-08T05:46:40.465Z,0
2018-02-08T05:47:40.456Z,0
2018-02-08T05:48:40.942Z,0
2018-02-08T05:49:40.691Z,0
2018-02-08T05:50:40.419Z,0
2018-02-08T05:51:40.661Z,0
2018-02-08T05:52:40.649Z,0
2018-02-08T05:53:40.385Z,0
2018-02-08T05:54:40.377Z,0
2018-02-08T05:55:40.375Z,0
2018-02-08T05:56:40.348Z,0
2018-02-08T05:57:40.593Z,0
2018-02-08T05:58:40.580Z,0
2018-02-08T05:59:40.584Z,0
2018-02-08T06:00:40.570Z,0
2018-02-08T06:01:40.545Z,0
2018-02-08T06:02:40.538Z,0
2018-02-08T06:03:40.782Z,0
2018-02-08T06:04:40.777Z,0
2018-02-08T06:05:40.545Z,0
2018-02-08T06:06:40.495Z,0
2018-02-08T06:07:40.730Z,0
2018-02-08T06:08:40.476Z,0
2018-02-08T06:09:40.463Z,0
2018-02-08T06:10:40.212Z,0
2018-02-08T06:11:42.493Z,0
2018-02-08T06:12:40.168Z,0
2018-02-08T06:13:40.475Z,0
2018-02-08T06:14:40.662Z,0
2018-02-08T06:15:40.390Z,4
2018-02-08T06:16:39.875Z,4
2018-02-08T06:17:40.362Z,4
2018-02-08T06:18:40.106Z,0
2018-02-08T06:19:40.089Z,4
2018-02-08T06:20:40.328Z,4
2018-02-08T06:21:41.375Z,4
2018-02-08T06:22:40.557Z,4
2018-02-08T06:23:40.050Z,4
2018-02-08T06:24:40.293Z,4
2018-02-08T06:25:39.776Z,8
2018-02-08T06:26:41.919Z,8
2018-02-08T06:27:40.504Z,12
2018-02-08T06:28:39.989Z,12
2018-02-08T06:29:39.981Z,16
2018-02-08T06:30:40.311Z,16
2018-02-08T06:31:40.211Z,20
2018-02-08T06:32:40.191Z,20
2018-02-08T06:33:40.435Z,24
2018-02-08T06:34:40.179Z,28
2018-02-08T06:35:40.177Z,36
2018-02-08T06:36:40.152Z,40
2018-02-08T06:37:40.142Z,40
2018-02-08T06:38:39.894Z,48
2018-02-08T06:39:39.900Z,56
2018-02-08T06:40:40.441Z,60
2018-02-08T06:41:40.121Z,68
2018-02-08T06:42:42.234Z,76
2018-02-08T06:43:39.835Z,84
2018-02-08T06:44:40.065Z,96
2018-02-08T06:45:40.061Z,104
2018-02-08T06:46:40.083Z,116
2018-02-08T06:47:39.836Z,128
2018-02-08T06:48:40.039Z,140
2018-02-08T06:49:39.767Z,148
2018-02-08T06:50:40.037Z,164
2018-02-08T06:51:40.242Z,176
2018-02-08T06:52:39.999Z,188
2018-02-08T06:53:39.970Z,196
2018-02-08T06:54:39.960Z,204
2018-02-08T06:55:40.201Z,220
2018-02-08T06:56:39.941Z,240
2018-02-08T06:57:42.369Z,256
2018-02-08T06:58:40.160Z,268
2018-02-08T06:59:39.891Z,280
2018-02-08T07:00:39.882Z,288
2018-02-08T07:01:39.617Z,300
2018-02-08T07:02:39.348Z,316
2018-02-08T07:03:39.674Z,336
2018-02-08T07:04:39.833Z,360
2018-02-08T07:05:39.673Z,380
2018-02-08T07:06:39.556Z,400
2018-02-08T07:07:40.059Z,416
2018-02-08T07:08:39.802Z,428
2018-02-08T07:09:40.027Z,448
2018-02-08T07:10:39.760Z,460
2018-02-08T07:11:39.516Z,472
2018-02-08T07:12:39.488Z,488
2018-02-08T07:13:39.479Z,504
2018-02-08T07:14:39.715Z,532
2018-02-08T07:15:39.700Z,544
2018-02-08T07:16:39.957Z,560
2018-02-08T07:17:39.927Z,568
2018-02-08T07:18:39.930Z,584
2018-02-08T07:19:39.675Z,604
2018-02-08T07:20:39.665Z,620
2018-02-08T07:21:39.884Z,640
2018-02-08T07:22:39.880Z,664
2018-02-08T07:23:39.368Z,684
2018-02-08T07:24:39.861Z,696
2018-02-08T07:25:39.588Z,708
2018-02-08T07:26:39.323Z,724
2018-02-08T07:27:39.573Z,736
2018-02-08T07:28:43.011Z,748
2018-02-08T07:29:39.038Z,756
2018-02-08T07:30:39.283Z,772
2018-02-08T07:31:39.519Z,788
2018-02-08T07:32:39.773Z,800
2018-02-08T07:33:38.998Z,808
2018-02-08T07:34:39.489Z,808
2018-02-08T07:35:39.770Z,804
2018-02-08T07:36:39.462Z,816
2018-02-08T07:37:39.472Z,824
2018-02-08T07:38:39.696Z,836
2018-02-08T07:39:39.173Z,848
2018-02-08T07:40:39.682Z,848
2018-02-08T07:41:39.460Z,840
2018-02-08T07:42:39.649Z,844
2018-02-08T07:43:40.388Z,844
2018-02-08T07:44:39.380Z,844
2018-02-08T07:45:39.109Z,840
2018-02-08T07:46:39.108Z,840
2018-02-08T07:47:39.094Z,844
2018-02-08T07:48:39.080Z,852
2018-02-08T07:49:39.325Z,860
2018-02-08T07:50:39.325Z,872
2018-02-08T07:51:39.558Z,880
2018-02-08T07:52:39.058Z,880
2018-02-08T07:53:39.531Z,888
2018-02-08T07:54:39.011Z,884
2018-02-08T07:55:39.001Z,896
2018-02-08T07:56:39.235Z,916
2018-02-08T07:57:39.482Z,940
2018-02-08T07:58:39.475Z,960
2018-02-08T07:59:38.950Z,976
2018-02-08T08:00:39.449Z,996
2018-02-08T08:01:38.934Z,1028
2018-02-08T08:02:38.765Z,1064
2018-02-08T08:03:39.418Z,1088
2018-02-08T08:04:38.906Z,1100
2018-02-08T08:05:39.134Z,1104
2018-02-08T08:06:38.878Z,1104
2018-02-08T08:07:39.114Z,1092
2018-02-08T08:08:39.372Z,1100
2018-02-08T08:09:39.092Z,1120
2018-02-08T08:10:39.331Z,1132
2018-02-08T08:11:39.331Z,1136
2018-02-08T08:12:39.068Z,1148
2018-02-08T08:13:39.046Z,1160
2018-02-08T08:14:39.044Z,1180
2018-02-08T08:15:39.345Z,1192
2018-02-08T08:16:39.277Z,1216
2018-02-08T08:17:39.014Z,1236
2018-02-08T08:18:38.740Z,1264
2018-02-08T08:19:38.726Z,1292
2018-02-08T08:20:39.254Z,1348
2018-02-08T08:21:38.707Z,1400
2018-02-08T08:22:39.202Z,1460
2018-02-08T08:23:39.200Z,1512
2018-02-08T08:24:39.177Z,1532
2018-02-08T08:25:38.924Z,1544
2018-02-08T08:26:38.649Z,1560
2018-02-08T08:27:38.893Z,1600
2018-02-08T08:28:38.642Z,1644
2018-02-08T08:29:38.917Z,1676
2018-02-08T08:30:38.608Z,1704
2018-02-08T08:31:39.116Z,1736
2018-02-08T08:32:38.586Z,1768
2018-02-08T08:33:38.827Z,1816
2018-02-08T08:34:38.565Z,1832
2018-02-08T08:35:38.563Z,1824
2018-02-08T08:36:38.299Z,1780
2018-02-08T08:38:10.394Z,1756
2018-02-08T08:38:38.529Z,1752
2018-02-08T08:39:38.508Z,1760
2018-02-08T08:40:39.009Z,1780
2018-02-08T08:41:38.485Z,1832
2018-02-08T08:42:38.733Z,1904
2018-02-08T08:43:38.467Z,2000
2018-02-08T08:44:41.162Z,2088
2018-02-08T08:45:38.942Z,2152
2018-02-08T08:46:38.440Z,2192
2018-02-08T08:47:38.170Z,2228
2018-02-08T08:48:38.666Z,2264
2018-02-08T08:49:38.653Z,2288
2018-02-08T08:50:38.690Z,2308
2018-02-08T08:51:38.885Z,2324
2018-02-08T08:52:38.630Z,2344
2018-02-08T08:53:38.362Z,2380
2018-02-08T08:54:38.617Z,2424
2018-02-08T08:55:38.604Z,2484
2018-02-08T08:56:38.664Z,2532
2018-02-08T08:57:38.861Z,2572
2018-02-08T08:58:38.878Z,2600
2018-02-08T08:59:40.633Z,2608
2018-02-08T09:00:38.308Z,2628
2018-02-08T09:01:38.052Z,2656
2018-02-08T09:02:38.541Z,2688
2018-02-08T09:03:38.276Z,2716
2018-02-08T09:04:38.512Z,2732
2018-02-08T09:05:38.503Z,2752
2018-02-08T09:06:38.481Z,2804
2018-02-08T09:07:37.971Z,2868
2018-02-08T09:08:38.725Z,2956
2018-02-08T09:09:38.449Z,3000
2018-02-08T09:10:38.464Z,3048
2018-02-08T09:11:38.435Z,3100
2018-02-08T09:12:38.426Z,3160
2018-02-08T09:13:38.675Z,3224
2018-02-08T09:14:38.137Z,3288
2018-02-08T09:15:38.563Z,3352
2018-02-08T09:16:38.124Z,3408
2018-02-08T09:17:38.147Z,3448
2018-02-08T09:18:38.111Z,3476
2018-02-08T09:19:38.608Z,3504
2018-02-08T09:20:38.428Z,3560
2018-02-08T09:21:38.577Z,3636
2018-02-08T09:22:38.334Z,3720
2018-02-08T09:23:38.054Z,3788
2018-02-08T09:24:38.326Z,3836
2018-02-08T09:25:38.024Z,3868
2018-02-08T09:26:38.552Z,3880
2018-02-08T09:27:38.302Z,3892
2018-02-08T09:28:38.243Z,3924
2018-02-08T09:29:38.483Z,3960
2018-02-08T09:30:38.223Z,3980
2018-02-08T09:31:38.232Z,4016
2018-02-08T09:32:38.217Z,4076
2018-02-08T09:33:38.213Z,4120
2018-02-08T09:34:37.939Z,4136
2018-02-08T09:35:38.185Z,4136
2018-02-08T09:36:38.234Z,4136
2018-02-08T09:37:38.426Z,4176
2018-02-08T09:38:38.175Z,4216
2018-02-08T09:39:38.154Z,4252
2018-02-08T09:40:38.494Z,4304
2018-02-08T09:41:38.139Z,4352
2018-02-08T09:42:37.874Z,4404
2018-02-08T09:43:38.369Z,4440
2018-02-08T09:44:38.100Z,4460
2018-02-08T09:45:39.146Z,4472
2018-02-08T09:46:37.848Z,4468
2018-02-08T09:47:38.128Z,4480
2018-02-08T09:48:38.082Z,4512
2018-02-08T09:49:38.308Z,4580
2018-02-08T09:50:38.075Z,4588
2018-02-08T09:51:38.040Z,4616
2018-02-08T09:52:38.033Z,4628
2018-02-08T09:53:38.288Z,4644
2018-02-08T09:54:38.059Z,4672
2018-02-08T09:55:38.252Z,4708
2018-02-08T09:56:38.259Z,4744
2018-02-08T09:57:37.997Z,4780
2018-02-08T09:58:37.987Z,4816
2018-02-08T09:59:37.969Z,4836
2018-02-08T10:00:38.183Z,4836
2018-02-08T10:01:37.943Z,4876
2018-02-08T10:02:37.978Z,4868
2018-02-08T10:03:38.197Z,4812
2018-02-08T10:04:37.936Z,4796
2018-02-08T10:05:37.676Z,4804
2018-02-08T10:06:38.163Z,4836
2018-02-08T10:07:38.161Z,4880
2018-02-08T10:08:37.900Z,4916
2018-02-08T10:09:38.157Z,4972
2018-02-08T10:10:37.642Z,5028
2018-02-08T10:11:38.114Z,5072
2018-02-08T10:12:37.604Z,5104
2018-02-08T10:13:38.102Z,5136
2018-02-08T10:14:37.594Z,5172
2018-02-08T10:15:40.083Z,5196
2018-02-08T10:16:37.585Z,5220
2018-02-08T10:17:37.836Z,5244
2018-02-08T10:18:37.812Z,5276
2018-02-08T10:19:37.549Z,5344
2018-02-08T10:20:38.048Z,5384
2018-02-08T10:21:37.801Z,5404
2018-02-08T10:22:38.028Z,5440
2018-02-08T10:23:37.546Z,5464
2018-02-08T10:53:38.375Z,6048
2018-02-08T10:54:37.239Z,6072
2018-02-08T10:55:36.971Z,6088
2018-02-08T10:56:36.713Z,6108
2018-02-08T10:57:37.213Z,6100
2018-02-08T10:58:36.434Z,6084
2018-02-08T10:59:36.917Z,6056
2018-02-08T11:00:36.655Z,6080
2018-02-08T11:01:36.900Z,6020
2018-02-08T11:02:36.892Z,5996
2018-02-08T11:03:37.139Z,5976
2018-02-08T11:04:36.865Z,5932
2018-02-08T11:05:37.105Z,5892
2018-02-08T11:06:36.604Z,5892
2018-02-08T11:07:37.093Z,5896
2018-02-08T11:08:37.083Z,5912
2018-02-08T11:09:37.066Z,5944
2018-02-08T11:10:37.068Z,5976
2018-02-08T11:11:36.795Z,6008
2018-02-08T11:12:36.787Z,6036
2018-02-08T11:13:36.786Z,6052
2018-02-08T11:14:36.777Z,6100
2018-02-08T11:15:36.517Z,6072
2018-02-08T11:16:36.520Z,6060
2018-02-08T11:17:36.750Z,6040
2018-02-08T11:18:36.747Z,6008
2018-02-08T11:19:36.227Z,5960
2018-02-08T11:20:36.217Z,5884
2018-02-08T11:21:36.724Z,5808
2018-02-08T11:22:36.460Z,5728
2018-02-08T11:23:38.255Z,5680
2018-02-08T11:24:36.688Z,5604
2018-02-08T11:25:36.798Z,5520
2018-02-08T11:26:36.670Z,5452
2018-02-08T11:27:36.680Z,5392
2018-02-08T11:28:36.661Z,5336
2018-02-08T11:29:36.413Z,5304
2018-02-08T11:30:36.657Z,5256
2018-02-08T11:31:36.642Z,5196
2018-02-08T11:32:36.883Z,5124
2018-02-08T11:33:36.866Z,5048
2018-02-08T11:34:36.866Z,4972
2018-02-08T11:35:36.644Z,4904
2018-02-08T11:36:36.843Z,4844
2018-02-08T11:37:36.089Z,4796
2018-02-08T11:38:36.833Z,4724
2018-02-08T11:39:36.817Z,4632
2018-02-08T11:40:36.585Z,4544
2018-02-08T11:41:36.321Z,4460
2018-02-08T11:42:36.553Z,4364
2018-02-08T11:43:36.800Z,4284
2018-02-08T11:44:36.289Z,4236
2018-02-08T11:45:36.592Z,4200
2018-02-08T11:46:36.271Z,4180
2018-02-08T11:47:36.510Z,4188
2018-02-08T11:48:36.252Z,4220
2018-02-08T11:49:36.232Z,4264
2018-02-08T11:50:36.731Z,4280
2018-02-08T11:51:35.975Z,4252
2018-02-08T11:52:36.488Z,4172
2018-02-08T11:53:39.401Z,4060
2018-02-08T11:54:36.700Z,3964
2018-02-08T11:55:36.688Z,3888
2018-02-08T11:56:36.426Z,3848
2018-02-08T11:57:36.192Z,3848
2018-02-08T11:58:36.420Z,3896
2018-02-08T11:59:36.651Z,3988
2018-02-08T12:00:36.404Z,4100
2018-02-08T12:01:36.150Z,4216
2018-02-08T12:02:36.140Z,4312
2018-02-08T12:03:36.633Z,4408
2018-02-08T12:04:36.365Z,4512
2018-02-08T12:05:36.110Z,4628
2018-02-08T12:06:36.655Z,4756
2018-02-08T12:07:36.353Z,4936
2018-02-08T12:08:36.072Z,5116
2018-02-08T12:09:36.322Z,5288
2018-02-08T12:10:36.049Z,5416
2018-02-08T12:11:36.324Z,5480
2018-02-08T12:12:36.290Z,5516
2018-02-08T12:13:36.036Z,5568
2018-02-08T12:14:36.007Z,5640
2018-02-08T12:15:36.058Z,5752
2018-02-08T12:16:36.517Z,5868
2018-02-08T12:17:36.242Z,5952
2018-02-08T12:18:35.972Z,5988
2018-02-08T12:19:36.488Z,5936
2018-02-08T12:20:35.994Z,5840
2018-02-08T12:21:35.942Z,5752
2018-02-08T12:22:36.233Z,5692
2018-02-08T12:23:36.430Z,5648
2018-02-08T12:24:36.685Z,5636
2018-02-08T12:25:36.060Z,5652
2018-02-08T12:26:35.909Z,5664
2018-02-08T12:27:36.155Z,5664
2018-02-08T12:28:36.144Z,5648
2018-02-08T12:29:35.879Z,5648
2018-02-08T12:30:36.185Z,5728
2018-02-08T12:31:35.880Z,5836
2018-02-08T12:32:36.113Z,5940
2018-02-08T12:33:35.852Z,5968
2018-02-08T12:34:36.367Z,5960
2018-02-08T12:35:35.894Z,5956
2018-02-08T12:36:35.570Z,5996
2018-02-08T12:37:35.822Z,6000
2018-02-08T12:38:36.327Z,5944
2018-02-08T12:39:36.302Z,5808
2018-02-08T12:40:36.331Z,5616
2018-02-08T12:41:36.031Z,5420
2018-02-08T12:42:36.275Z,5292
2018-02-08T12:43:36.284Z,5240
2018-02-08T12:44:35.769Z,5272
2018-02-08T12:45:36.246Z,5344
2018-02-08T12:46:35.983Z,5404
2018-02-08T12:47:35.971Z,5412
2018-02-08T12:48:35.970Z,5392
2018-02-08T12:49:35.963Z,5412
2018-02-08T12:50:36.213Z,5468
2018-02-08T12:51:35.698Z,5548
2018-02-08T12:52:35.933Z,5612
2018-02-08T12:53:35.675Z,5624
2018-02-08T12:54:39.921Z,5616
2018-02-08T12:55:36.299Z,5604
2018-02-08T12:56:35.908Z,5548
2018-02-08T12:57:35.637Z,5472
2018-02-08T12:58:35.884Z,5400
2018-02-08T12:59:35.895Z,5412
2018-02-08T13:00:36.178Z,5484
2018-02-08T13:01:36.109Z,5600
2018-02-08T13:02:36.178Z,5700
2018-02-08T13:03:35.601Z,5680
2018-02-08T13:04:36.095Z,5600
2018-02-08T13:05:36.101Z,5500
2018-02-08T13:06:36.080Z,5412
2018-02-08T13:07:35.828Z,5352
2018-02-08T13:08:36.064Z,5344
2018-02-08T13:09:36.052Z,5316
2018-02-08T13:10:35.544Z,5240
2018-02-08T13:11:35.801Z,5160
2018-02-08T13:12:35.784Z,5076
2018-02-08T13:13:35.768Z,4996
2018-02-08T13:14:36.038Z,4924
2018-02-08T13:15:35.802Z,4856
2018-02-08T13:16:36.005Z,4780
2018-02-08T13:17:35.996Z,4704
2018-02-08T13:18:36.016Z,4664
2018-02-08T13:19:36.000Z,4648
2018-02-08T13:20:35.787Z,4680
2018-02-08T13:21:35.717Z,4748
2018-02-08T13:22:35.699Z,4804
2018-02-08T13:23:35.447Z,4856
2018-02-08T13:24:37.293Z,4880
2018-02-08T13:25:36.009Z,4864
2018-02-08T13:26:35.697Z,4816
2018-02-08T13:27:35.660Z,4712
2018-02-08T13:28:35.914Z,4572
2018-02-08T13:29:35.649Z,4456
2018-02-08T13:30:35.654Z,4356
2018-02-08T13:31:35.385Z,4212
2018-02-08T13:32:35.634Z,4084
2018-02-08T13:33:35.619Z,4016
2018-02-08T13:34:35.873Z,3980
2018-02-08T13:35:35.608Z,3988
2018-02-08T13:36:35.863Z,4008
2018-02-08T13:37:35.590Z,4028
2018-02-08T13:38:35.596Z,4076
2018-02-08T13:39:35.657Z,4088
2018-02-08T13:40:35.658Z,4088
2018-02-08T13:41:35.317Z,4040
2018-02-08T13:42:35.299Z,4032
2018-02-08T13:43:35.546Z,4056
2018-02-08T13:44:35.823Z,4116
2018-02-08T13:45:35.317Z,4172
2018-02-08T13:46:35.774Z,4168
2018-02-08T13:47:35.520Z,4124
2018-02-08T13:48:35.508Z,4088
2018-02-08T13:49:35.021Z,4088
2018-02-08T13:50:35.613Z,4068
2018-02-08T13:51:35.737Z,4016
2018-02-08T13:52:35.725Z,3964
2018-02-08T13:53:35.714Z,3900
2018-02-08T13:54:35.465Z,3868
2018-02-08T13:55:35.533Z,3872
2018-02-08T13:56:35.194Z,3876
2018-02-08T13:57:35.440Z,3840
2018-02-08T13:58:35.680Z,3776
2018-02-08T13:59:35.672Z,3712
2018-02-08T14:00:35.431Z,3692
2018-02-08T14:01:35.669Z,3704
2018-02-08T14:02:35.147Z,3712
2018-02-08T14:03:35.404Z,3720
2018-02-08T14:04:35.638Z,3696
2018-02-08T14:05:35.246Z,3624
2018-02-08T14:06:35.366Z,3572
2018-02-08T14:07:35.108Z,3532
2018-02-08T14:08:35.600Z,3484
2018-02-08T14:09:34.843Z,3448
2018-02-08T14:10:35.147Z,3428
2018-02-08T14:11:35.328Z,3436
2018-02-08T14:12:35.320Z,3456
2018-02-08T14:13:35.061Z,3472
2018-02-08T14:14:35.063Z,3468
2018-02-08T14:15:35.648Z,3468
2018-02-08T14:16:35.289Z,3488
2018-02-08T14:17:35.526Z,3468
2018-02-08T14:18:35.518Z,3464
2018-02-08T14:19:35.519Z,3452
2018-02-08T14:20:35.257Z,3428
2018-02-08T14:21:34.994Z,3384
2018-02-08T14:22:35.238Z,3352
2018-02-08T14:23:35.509Z,3348
2018-02-08T14:24:34.727Z,3336
2018-02-08T14:25:36.325Z,3336
2018-02-08T14:26:35.208Z,3348
2018-02-08T14:27:35.190Z,3324
2018-02-08T14:28:34.939Z,3280
2018-02-08T14:29:35.174Z,3268